createdAt,value
2019-03-30T00:00:51.387Z,0.00
2019-03-30T00:01:51.378Z,0.00
2019-03-30T00:02:51.364Z,0.00
2019-03-30T00:03:51.379Z,0.00
2019-03-30T00:04:51.344Z,0.00
2019-03-30T00:05:51.334Z,0.00
2019-03-30T00:06:51.322Z,0.00
2019-03-30T00:07:51.310Z,0.00
2019-03-30T00:08:51.336Z,0.00
2019-03-30T00:09:51.290Z,0.00
2019-03-30T00:10:51.278Z,0.00
2019-03-30T00:11:51.266Z,0.00
2019-03-30T00:12:51.258Z,0.00
2019-03-30T00:13:51.244Z,0.00
2019-03-30T00:14:51.259Z,0.00
2019-03-30T00:15:51.224Z,0.00
2019-03-30T00:16:51.214Z,0.00
2019-03-30T00:17:51.203Z,0.00
2019-03-30T00:18:51.192Z,0.00
2019-03-30T00:19:51.215Z,0.00
2019-03-30T00:20:51.171Z,0.00
2019-03-30T00:21:51.159Z,0.00
2019-03-30T00:22:51.151Z,0.00
2019-03-30T00:23:51.137Z,0.00
2019-03-30T00:24:51.129Z,0.00
2019-03-30T00:25:51.143Z,0.00
2019-03-30T00:26:51.105Z,0.00
2019-03-30T00:27:51.094Z,0.00
2019-03-30T00:28:51.084Z,0.00
2019-03-30T00:29:51.072Z,0.00
2019-03-30T00:30:51.098Z,0.00
2019-03-30T00:31:51.054Z,0.00
2019-03-30T00:32:51.042Z,0.00
2019-03-30T00:33:51.029Z,0.00
2019-03-30T00:34:51.017Z,0.00
2019-03-30T00:35:51.007Z,0.00
2019-03-30T00:36:51.021Z,0.00
2019-03-30T00:37:50.989Z,0.00
2019-03-30T00:38:50.974Z,0.00
2019-03-30T00:39:50.965Z,0.00
2019-03-30T00:40:50.951Z,0.00
2019-03-30T00:41:50.978Z,0.00
2019-03-30T00:42:50.930Z,0.00
2019-03-30T00:43:50.919Z,0.00
2019-03-30T00:44:50.907Z,0.00
2019-03-30T00:45:50.898Z,0.00
2019-03-30T00:46:50.885Z,0.00
2019-03-30T00:47:50.901Z,0.00
2019-03-30T00:48:50.862Z,0.00
2019-03-30T00:49:50.855Z,0.00
2019-03-30T00:50:50.840Z,0.00
2019-03-30T00:51:50.829Z,0.00
2019-03-30T00:52:50.857Z,0.00
2019-03-30T00:53:50.808Z,0.00
2019-03-30T00:54:50.804Z,0.00
2019-03-30T00:55:50.786Z,0.00
2019-03-30T00:56:50.775Z,0.00
2019-03-30T00:57:50.765Z,0.00
2019-03-30T00:58:50.779Z,0.00
2019-03-30T00:59:50.742Z,0.00
2019-03-30T01:00:50.735Z,0.00
2019-03-30T01:01:50.720Z,0.00
2019-03-30T01:02:50.711Z,0.00
2019-03-30T01:03:50.736Z,0.00
2019-03-30T01:04:50.689Z,0.00
2019-03-30T01:05:50.677Z,0.00
2019-03-30T01:06:50.667Z,0.00
2019-03-30T01:07:50.657Z,0.00
2019-03-30T01:08:50.645Z,0.00
2019-03-30T01:09:50.658Z,0.00
2019-03-30T01:10:50.622Z,0.00
2019-03-30T01:11:50.611Z,0.00
2019-03-30T01:12:50.600Z,0.00
2019-03-30T01:13:50.595Z,0.00
2019-03-30T01:14:50.615Z,0.00
2019-03-30T01:15:50.568Z,0.00
2019-03-30T01:16:50.559Z,0.00
2019-03-30T01:17:50.546Z,0.00
2019-03-30T01:18:50.536Z,0.00
2019-03-30T01:20:02.240Z,0.00
2019-03-30T01:20:51.541Z,0.00
2019-03-30T01:21:50.503Z,0.00
2019-03-30T01:22:50.500Z,0.00
2019-03-30T01:23:50.482Z,0.00
2019-03-30T01:24:50.471Z,0.00
2019-03-30T01:25:50.496Z,0.00
2019-03-30T01:26:50.450Z,0.00
2019-03-30T01:27:50.438Z,0.00
2019-03-30T01:28:50.430Z,0.00
2019-03-30T01:29:50.419Z,0.00
2019-03-30T01:30:50.406Z,0.00
2019-03-30T01:31:50.421Z,0.00
2019-03-30T01:32:50.389Z,0.00
2019-03-30T01:33:50.377Z,0.00
2019-03-30T01:34:50.364Z,0.00
2019-03-30T01:35:50.353Z,0.00
2019-03-30T01:36:50.368Z,0.00
2019-03-30T01:37:50.332Z,0.00
2019-03-30T01:38:50.320Z,0.00
2019-03-30T01:39:50.308Z,0.00
2019-03-30T01:40:50.299Z,0.00
2019-03-30T01:41:50.337Z,0.00
2019-03-30T01:42:50.278Z,0.00
2019-03-30T01:43:50.264Z,0.00
2019-03-30T01:44:50.254Z,0.00
2019-03-30T01:45:50.243Z,0.00
2019-03-30T01:46:50.234Z,0.00
2019-03-30T01:47:50.252Z,0.00
2019-03-30T01:48:50.214Z,0.00
2019-03-30T01:49:50.200Z,0.00
2019-03-30T01:50:50.191Z,0.00
2019-03-30T01:51:50.178Z,0.00
2019-03-30T01:52:50.208Z,0.00
2019-03-30T01:53:50.157Z,0.00
2019-03-30T01:54:50.148Z,0.00
2019-03-30T01:55:50.151Z,0.00
2019-03-30T01:56:50.124Z,0.00
2019-03-30T01:57:50.115Z,0.00
2019-03-30T01:58:50.127Z,0.00
2019-03-30T01:59:50.094Z,0.00
2019-03-30T02:00:50.083Z,0.00
2019-03-30T02:01:50.074Z,0.00
2019-03-30T02:02:50.062Z,0.00
2019-03-30T02:03:50.077Z,0.00
2019-03-30T02:04:50.041Z,0.00
2019-03-30T02:05:50.035Z,0.00
2019-03-30T02:06:50.032Z,0.00
2019-03-30T02:07:50.009Z,0.00
2019-03-30T02:08:50.036Z,0.00
2019-03-30T02:09:49.987Z,0.00
2019-03-30T02:10:49.980Z,0.00
2019-03-30T02:11:49.965Z,0.00
2019-03-30T02:12:49.958Z,0.00
2019-03-30T02:13:49.946Z,0.00
2019-03-30T02:14:49.960Z,0.00
2019-03-30T02:15:49.926Z,0.00
2019-03-30T02:16:49.914Z,0.00
2019-03-30T02:17:49.903Z,0.00
2019-03-30T02:18:49.890Z,0.00
2019-03-30T02:19:49.920Z,0.00
2019-03-30T02:20:49.873Z,0.00
2019-03-30T02:21:49.861Z,0.00
2019-03-30T02:22:49.852Z,0.00
2019-03-30T02:23:49.839Z,0.00
2019-03-30T02:24:49.828Z,0.00
2019-03-30T02:25:49.846Z,0.00
2019-03-30T02:26:49.814Z,0.00
2019-03-30T02:27:49.797Z,0.00
2019-03-30T02:28:49.786Z,0.00
2019-03-30T02:29:49.776Z,0.00
2019-03-30T02:30:49.903Z,0.00
2019-03-30T02:31:49.770Z,0.00
2019-03-30T02:32:49.745Z,0.00
2019-03-30T02:33:49.737Z,0.00
2019-03-30T02:34:49.724Z,0.00
2019-03-30T02:35:49.714Z,0.00
2019-03-30T02:36:49.731Z,0.00
2019-03-30T02:37:49.754Z,0.00
2019-03-30T02:38:49.682Z,0.00
2019-03-30T02:39:49.673Z,0.00
2019-03-30T02:40:49.661Z,0.00
2019-03-30T02:41:49.686Z,0.00
2019-03-30T02:42:49.648Z,0.00
2019-03-30T02:43:49.629Z,0.00
2019-03-30T02:44:49.620Z,0.00
2019-03-30T02:45:49.606Z,0.00
2019-03-30T02:46:49.600Z,0.00
2019-03-30T02:47:49.616Z,0.00
2019-03-30T02:48:49.604Z,0.00
2019-03-30T02:49:49.565Z,0.00
2019-03-30T02:50:50.742Z,0.00
2019-03-30T02:51:49.592Z,0.00
2019-03-30T02:52:49.572Z,0.00
2019-03-30T02:53:49.531Z,0.00
2019-03-30T02:54:49.515Z,0.00
2019-03-30T02:55:49.501Z,0.00
2019-03-30T02:56:49.492Z,0.00
2019-03-30T02:57:49.481Z,0.00
2019-03-30T02:58:49.502Z,0.00
2019-03-30T02:59:49.462Z,0.00
2019-03-30T03:00:49.450Z,0.00
2019-03-30T03:01:49.437Z,0.00
2019-03-30T03:02:49.428Z,0.00
2019-03-30T03:03:49.602Z,0.00
2019-03-30T03:04:49.410Z,0.00
2019-03-30T03:05:49.396Z,0.00
2019-03-30T03:06:49.385Z,0.00
2019-03-30T03:07:49.393Z,0.00
2019-03-30T03:08:49.413Z,0.00
2019-03-30T03:09:49.352Z,0.00
2019-03-30T03:10:49.341Z,0.00
2019-03-30T03:11:49.344Z,0.00
2019-03-30T03:12:49.322Z,0.00
2019-03-30T03:13:49.313Z,0.00
2019-03-30T03:14:49.323Z,0.00
2019-03-30T03:15:49.286Z,0.00
2019-03-30T03:16:49.283Z,0.00
2019-03-30T03:17:49.268Z,0.00
2019-03-30T03:18:49.254Z,0.00
2019-03-30T03:19:49.271Z,0.00
2019-03-30T03:21:06.193Z,0.00
2019-03-30T03:21:50.221Z,0.00
2019-03-30T03:22:49.213Z,0.00
2019-03-30T03:23:49.205Z,0.00
2019-03-30T03:24:49.238Z,0.00
2019-03-30T03:25:49.189Z,0.00
2019-03-30T03:26:49.171Z,0.00
2019-03-30T03:27:49.160Z,0.00
2019-03-30T03:28:49.149Z,0.00
2019-03-30T03:29:49.138Z,0.00
2019-03-30T03:30:49.154Z,0.00
2019-03-30T03:31:49.123Z,0.00
2019-03-30T03:32:49.105Z,0.00
2019-03-30T03:33:49.121Z,0.00
2019-03-30T03:34:49.097Z,0.00
2019-03-30T03:35:49.107Z,0.00
2019-03-30T03:36:49.062Z,0.00
2019-03-30T03:37:49.056Z,0.00
2019-03-30T03:38:49.154Z,0.00
2019-03-30T03:39:49.031Z,0.00
2019-03-30T03:40:49.047Z,0.00
2019-03-30T03:41:49.012Z,0.00
2019-03-30T03:42:49.003Z,0.00
2019-03-30T03:43:48.988Z,0.00
2019-03-30T03:44:48.980Z,0.00
2019-03-30T03:45:49.013Z,0.00
2019-03-30T03:46:48.954Z,0.00
2019-03-30T03:47:49.028Z,0.00
2019-03-30T03:48:48.944Z,0.00
2019-03-30T03:49:48.926Z,0.00
2019-03-30T03:50:48.911Z,0.00
2019-03-30T03:51:48.929Z,0.00
2019-03-30T03:52:48.890Z,0.00
2019-03-30T03:53:48.880Z,0.00
2019-03-30T03:54:48.868Z,0.00
2019-03-30T03:55:48.859Z,0.00
2019-03-30T03:56:48.885Z,0.00
2019-03-30T03:57:48.839Z,0.00
2019-03-30T03:58:48.907Z,0.00
2019-03-30T03:59:48.813Z,0.00
2019-03-30T04:00:48.805Z,0.00
2019-03-30T04:01:48.794Z,0.00
2019-03-30T04:02:48.809Z,0.00
2019-03-30T04:03:48.772Z,0.00
2019-03-30T04:04:48.770Z,0.00
2019-03-30T04:05:48.751Z,0.00
2019-03-30T04:06:48.743Z,0.00
2019-03-30T04:07:48.756Z,0.00
2019-03-30T04:08:48.728Z,0.00
2019-03-30T04:09:48.709Z,0.00
2019-03-30T04:10:48.807Z,0.00
2019-03-30T04:11:48.685Z,0.00
2019-03-30T04:12:48.701Z,0.00
2019-03-30T04:13:48.665Z,0.00
2019-03-30T04:14:48.654Z,0.00
2019-03-30T04:15:48.649Z,0.00
2019-03-30T04:16:48.631Z,0.00
2019-03-30T04:17:48.655Z,0.00
2019-03-30T04:18:48.723Z,0.00
2019-03-30T04:19:48.625Z,0.00
2019-03-30T04:20:48.593Z,0.00
2019-03-30T04:21:48.581Z,0.00
2019-03-30T04:22:48.569Z,0.00
2019-03-30T04:23:48.597Z,4.00
2019-03-30T04:24:48.546Z,0.00
2019-03-30T04:25:48.535Z,4.00
2019-03-30T04:26:48.525Z,0.00
2019-03-30T04:27:48.521Z,0.00
2019-03-30T04:28:48.502Z,0.00
2019-03-30T04:29:48.581Z,4.00
2019-03-30T04:30:48.486Z,4.00
2019-03-30T04:31:48.489Z,8.00
2019-03-30T04:32:48.461Z,8.00
2019-03-30T04:33:48.449Z,8.00
2019-03-30T04:34:48.476Z,8.00
2019-03-30T04:35:48.427Z,12.00
2019-03-30T04:36:48.478Z,12.00
2019-03-30T04:37:48.408Z,16.00
2019-03-30T04:38:48.400Z,16.00
2019-03-30T04:39:48.403Z,20.00
2019-03-30T04:40:48.398Z,24.00
2019-03-30T04:41:48.363Z,24.00
2019-03-30T04:42:48.352Z,24.00
2019-03-30T04:43:48.342Z,32.00
2019-03-30T04:44:48.335Z,36.00
2019-03-30T04:45:48.343Z,36.00
2019-03-30T04:46:48.314Z,40.00
2019-03-30T04:47:48.300Z,44.00
2019-03-30T04:48:48.290Z,48.00
2019-03-30T04:49:48.281Z,52.00
2019-03-30T04:50:48.293Z,56.00
2019-03-30T04:51:57.350Z,64.00
2019-03-30T04:52:49.252Z,68.00
2019-03-30T04:53:48.237Z,72.00
2019-03-30T04:54:48.223Z,80.00
2019-03-30T04:55:48.252Z,84.00
2019-03-30T04:56:48.209Z,88.00
2019-03-30T04:57:49.675Z,96.00
2019-03-30T04:58:48.182Z,104.00
2019-03-30T04:59:48.170Z,112.00
2019-03-30T05:00:48.161Z,116.00
2019-03-30T05:01:48.174Z,124.00
2019-03-30T05:02:48.140Z,132.00
2019-03-30T05:03:48.127Z,140.00
2019-03-30T05:04:48.203Z,148.00
2019-03-30T05:05:48.106Z,156.00
2019-03-30T05:06:48.155Z,168.00
2019-03-30T05:07:48.090Z,176.00
2019-03-30T05:08:48.076Z,184.00
2019-03-30T05:09:48.065Z,192.00
2019-03-30T05:10:48.058Z,208.00
2019-03-30T05:11:48.044Z,216.00
2019-03-30T05:12:48.058Z,228.00
2019-03-30T05:13:48.020Z,236.00
2019-03-30T05:14:48.011Z,248.00
2019-03-30T05:15:48.005Z,264.00
2019-03-30T05:16:47.988Z,276.00
2019-03-30T05:17:48.291Z,288.00
2019-03-30T05:18:47.969Z,300.00
2019-03-30T05:19:47.956Z,312.00
2019-03-30T05:20:47.945Z,320.00
2019-03-30T05:21:47.937Z,332.00
2019-03-30T05:22:51.113Z,348.00
2019-03-30T05:23:47.915Z,364.00
2019-03-30T05:24:47.904Z,384.00
2019-03-30T05:25:47.891Z,400.00
2019-03-30T05:26:47.880Z,400.00
2019-03-30T05:27:47.872Z,416.00
2019-03-30T05:28:47.890Z,432.00
2019-03-30T05:29:47.851Z,440.00
2019-03-30T05:30:47.839Z,452.00
2019-03-30T05:31:47.828Z,464.00
2019-03-30T05:32:47.817Z,476.00
2019-03-30T05:33:47.838Z,488.00
2019-03-30T05:34:47.798Z,500.00
2019-03-30T05:35:47.786Z,512.00
2019-03-30T05:36:47.780Z,520.00
2019-03-30T05:37:47.763Z,532.00
2019-03-30T05:38:47.790Z,536.00
2019-03-30T05:39:47.746Z,540.00
2019-03-30T05:40:47.731Z,540.00
2019-03-30T05:41:47.719Z,548.00
2019-03-30T05:42:47.711Z,572.00
2019-03-30T05:43:47.701Z,600.00
2019-03-30T05:44:47.714Z,624.00
2019-03-30T05:45:47.678Z,636.00
2019-03-30T05:46:47.666Z,648.00
2019-03-30T05:47:47.658Z,664.00
2019-03-30T05:48:47.643Z,688.00
2019-03-30T05:49:47.672Z,716.00
2019-03-30T05:50:47.624Z,744.00
2019-03-30T05:51:47.616Z,732.00
2019-03-30T05:52:47.602Z,712.00
2019-03-30T05:53:47.592Z,684.00
2019-03-30T05:54:47.584Z,700.00
2019-03-30T05:55:47.597Z,748.00
2019-03-30T05:56:47.560Z,852.00
2019-03-30T05:57:47.551Z,880.00
2019-03-30T05:58:47.537Z,908.00
2019-03-30T05:59:47.529Z,932.00
2019-03-30T06:00:47.545Z,940.00
2019-03-30T06:01:47.505Z,956.00
2019-03-30T06:02:47.498Z,980.00
2019-03-30T06:03:47.486Z,972.00
2019-03-30T06:04:47.473Z,984.00
2019-03-30T06:05:47.510Z,1000.00
2019-03-30T06:06:47.452Z,1020.00
2019-03-30T06:07:47.443Z,1036.00
2019-03-30T06:08:47.434Z,1048.00
2019-03-30T06:09:47.424Z,1032.00
2019-03-30T06:10:47.434Z,1064.00
2019-03-30T06:11:47.399Z,1080.00
2019-03-30T06:12:47.391Z,1136.00
2019-03-30T06:13:47.376Z,1188.00
2019-03-30T06:14:47.365Z,1208.00
2019-03-30T06:15:47.384Z,1264.00
2019-03-30T06:16:47.346Z,1412.00
2019-03-30T06:17:47.336Z,1532.00
2019-03-30T06:18:47.323Z,1592.00
2019-03-30T06:19:47.313Z,1636.00
2019-03-30T06:20:47.332Z,1616.00
2019-03-30T06:21:47.291Z,1592.00
2019-03-30T06:22:47.282Z,1572.00
2019-03-30T06:23:48.760Z,1560.00
2019-03-30T06:24:47.259Z,1544.00
2019-03-30T06:25:47.286Z,1516.00
2019-03-30T06:26:47.240Z,1512.00
2019-03-30T06:27:47.235Z,1484.00
2019-03-30T06:28:47.219Z,1460.00
2019-03-30T06:29:47.206Z,1436.00
2019-03-30T06:30:47.201Z,1464.00
2019-03-30T06:31:47.210Z,1432.00
2019-03-30T06:32:47.177Z,1468.00
2019-03-30T06:33:47.164Z,1468.00
2019-03-30T06:34:47.153Z,1504.00
2019-03-30T06:35:47.144Z,1544.00
2019-03-30T06:36:47.156Z,1552.00
2019-03-30T06:37:47.127Z,1608.00
2019-03-30T06:38:47.111Z,1636.00
2019-03-30T06:39:47.100Z,1632.00
2019-03-30T06:40:47.094Z,1656.00
2019-03-30T06:41:47.113Z,1652.00
2019-03-30T06:42:47.109Z,1644.00
2019-03-30T06:43:47.057Z,1656.00
2019-03-30T06:44:47.045Z,1680.00
2019-03-30T06:45:47.035Z,1672.00
2019-03-30T06:46:47.051Z,1680.00
2019-03-30T06:47:47.050Z,1676.00
2019-03-30T06:48:47.004Z,1652.00
2019-03-30T06:49:46.990Z,1644.00
2019-03-30T06:50:46.979Z,1636.00
2019-03-30T06:51:46.970Z,1628.00
2019-03-30T06:52:57.447Z,1644.00
2019-03-30T06:53:47.970Z,1636.00
2019-03-30T06:54:46.937Z,1656.00
2019-03-30T06:55:46.923Z,1660.00
2019-03-30T06:56:46.912Z,1632.00
2019-03-30T06:57:46.903Z,1616.00
2019-03-30T06:58:47.028Z,1648.00
2019-03-30T06:59:46.881Z,1652.00
2019-03-30T07:00:46.873Z,1612.00
2019-03-30T07:01:46.859Z,1556.00
2019-03-30T07:02:46.848Z,1540.00
2019-03-30T07:03:46.836Z,1532.00
2019-03-30T07:04:46.853Z,1588.00
2019-03-30T07:05:46.829Z,1564.00
2019-03-30T07:06:46.804Z,1580.00
2019-03-30T07:07:46.791Z,1588.00
2019-03-30T07:08:46.782Z,1632.00
2019-03-30T07:09:46.807Z,1616.00
2019-03-30T07:10:46.768Z,1616.00
2019-03-30T07:11:46.756Z,1652.00
2019-03-30T07:12:46.743Z,1728.00
2019-03-30T07:13:46.730Z,1756.00
2019-03-30T07:14:46.720Z,1760.00
2019-03-30T07:15:46.736Z,1708.00
2019-03-30T07:16:46.701Z,1736.00
2019-03-30T07:17:46.687Z,1752.00
2019-03-30T07:18:46.678Z,1764.00
2019-03-30T07:19:46.665Z,1776.00
2019-03-30T07:20:46.686Z,1780.00
2019-03-30T07:21:46.645Z,1784.00
2019-03-30T07:22:46.634Z,1780.00
2019-03-30T07:23:46.625Z,1800.00
2019-03-30T07:24:46.617Z,1848.00
2019-03-30T07:25:46.642Z,1848.00
2019-03-30T07:26:46.591Z,1852.00
2019-03-30T07:27:46.583Z,1880.00
2019-03-30T07:28:47.209Z,1880.00
2019-03-30T07:29:46.561Z,1904.00
2019-03-30T07:30:46.547Z,1892.00
2019-03-30T07:31:46.561Z,1892.00
2019-03-30T07:32:46.526Z,1824.00
2019-03-30T07:33:46.513Z,1912.00
2019-03-30T07:34:46.523Z,1892.00
2019-03-30T07:35:46.492Z,1916.00
2019-03-30T07:36:46.510Z,1920.00
2019-03-30T07:37:46.518Z,1948.00
2019-03-30T07:38:46.460Z,1944.00
2019-03-30T07:39:46.466Z,1948.00
2019-03-30T07:40:46.437Z,1968.00
2019-03-30T07:41:46.464Z,1968.00
2019-03-30T07:42:46.414Z,1980.00
2019-03-30T07:43:46.404Z,1992.00
2019-03-30T07:44:46.393Z,2004.00
2019-03-30T07:45:46.381Z,2016.00
2019-03-30T07:46:46.371Z,2020.00
2019-03-30T07:47:46.396Z,2044.00
2019-03-30T07:48:46.354Z,2048.00
2019-03-30T07:49:46.339Z,2056.00
2019-03-30T07:50:46.330Z,2072.00
2019-03-30T07:51:46.318Z,2084.00
2019-03-30T07:52:46.309Z,2092.00
2019-03-30T07:53:46.325Z,2068.00
2019-03-30T07:54:46.315Z,2080.00
2019-03-30T07:55:46.277Z,2040.00
2019-03-30T07:56:46.277Z,2024.00
2019-03-30T07:57:46.254Z,2064.00
2019-03-30T07:58:46.269Z,2100.00
2019-03-30T07:59:46.235Z,2108.00
2019-03-30T08:00:46.222Z,2112.00
2019-03-30T08:01:46.228Z,2112.00
2019-03-30T08:02:46.203Z,2124.00
2019-03-30T08:03:46.232Z,2128.00
2019-03-30T08:04:46.180Z,2156.00
2019-03-30T08:05:46.167Z,2152.00
2019-03-30T08:06:46.157Z,2148.00
2019-03-30T08:07:46.147Z,2156.00
2019-03-30T08:08:46.145Z,2160.00
2019-03-30T08:09:46.160Z,2200.00
2019-03-30T08:10:46.114Z,2196.00
2019-03-30T08:11:46.102Z,2200.00
2019-03-30T08:12:46.093Z,2204.00
2019-03-30T08:13:46.081Z,2196.00
2019-03-30T08:14:46.134Z,2216.00
2019-03-30T08:15:46.086Z,2228.00
2019-03-30T08:16:46.047Z,2212.00
2019-03-30T08:17:46.036Z,2116.00
2019-03-30T08:18:46.027Z,2276.00
2019-03-30T08:19:46.025Z,2268.00
2019-03-30T08:20:46.039Z,2240.00
2019-03-30T08:21:45.996Z,2252.00
2019-03-30T08:22:45.983Z,2252.00
2019-03-30T08:23:45.972Z,2252.00
2019-03-30T08:24:45.963Z,2248.00
2019-03-30T08:25:45.991Z,2280.00
2019-03-30T08:26:45.939Z,2272.00
2019-03-30T08:27:45.930Z,2204.00
2019-03-30T08:28:45.920Z,2172.00
2019-03-30T08:29:45.909Z,2176.00
2019-03-30T08:30:45.898Z,2196.00
2019-03-30T08:31:45.913Z,2196.00
2019-03-30T08:32:45.880Z,2212.00
2019-03-30T08:33:45.868Z,2196.00
2019-03-30T08:34:45.861Z,2236.00
2019-03-30T08:35:45.843Z,2236.00
2019-03-30T08:36:45.858Z,2224.00
2019-03-30T08:37:45.844Z,2236.00
2019-03-30T08:38:45.875Z,2252.00
2019-03-30T08:39:45.799Z,2212.00
2019-03-30T08:40:45.856Z,2156.00
2019-03-30T08:41:45.817Z,2184.00
2019-03-30T08:42:45.772Z,2276.00
2019-03-30T08:43:45.757Z,2344.00
2019-03-30T08:44:45.749Z,2364.00
2019-03-30T08:45:48.795Z,2372.00
2019-03-30T08:46:45.725Z,2320.00
2019-03-30T08:47:45.751Z,2244.00
2019-03-30T08:48:45.707Z,2240.00
2019-03-30T08:49:45.698Z,2208.00
2019-03-30T08:50:45.685Z,2180.00
2019-03-30T08:51:45.672Z,2208.00
2019-03-30T08:52:45.663Z,2256.00
2019-03-30T08:53:54.564Z,2244.00
2019-03-30T08:54:46.639Z,2304.00
2019-03-30T08:55:45.630Z,2324.00
2019-03-30T08:56:45.618Z,2312.00
2019-03-30T08:57:45.607Z,2280.00
2019-03-30T08:58:45.629Z,2220.00
2019-03-30T08:59:45.588Z,2324.00
2019-03-30T09:00:45.577Z,2308.00
2019-03-30T09:01:45.566Z,2328.00
2019-03-30T09:02:45.554Z,2336.00
2019-03-30T09:03:45.574Z,2332.00
2019-03-30T09:04:45.532Z,2304.00
2019-03-30T09:05:45.524Z,2316.00
2019-03-30T09:06:45.510Z,2316.00
2019-03-30T09:07:45.500Z,2320.00
2019-03-30T09:08:45.519Z,2312.00
2019-03-30T09:09:45.478Z,2316.00
2019-03-30T09:10:45.465Z,2300.00
2019-03-30T09:11:45.477Z,2392.00
2019-03-30T09:12:45.444Z,2360.00
2019-03-30T09:13:45.458Z,2320.00
2019-03-30T09:14:45.426Z,2272.00
2019-03-30T09:15:45.412Z,2184.00
2019-03-30T09:16:45.400Z,2148.00
2019-03-30T09:17:45.391Z,2160.00
2019-03-30T09:18:45.414Z,2180.00
2019-03-30T09:19:45.377Z,2060.00
2019-03-30T09:20:45.357Z,2204.00
2019-03-30T09:21:45.346Z,2348.00
2019-03-30T09:22:45.336Z,2400.00
2019-03-30T09:23:45.325Z,2476.00
2019-03-30T09:24:45.339Z,2452.00
2019-03-30T09:25:45.304Z,2352.00
2019-03-30T09:26:45.293Z,2344.00
2019-03-30T09:27:45.285Z,2412.00
2019-03-30T09:28:45.272Z,2452.00
2019-03-30T09:29:45.295Z,2520.00
2019-03-30T09:30:45.250Z,2500.00
2019-03-30T09:31:45.242Z,2408.00
2019-03-30T09:32:45.408Z,2428.00
2019-03-30T09:33:45.245Z,2548.00
2019-03-30T09:34:45.208Z,2560.00
2019-03-30T09:35:45.220Z,2508.00
2019-03-30T09:36:45.302Z,2600.00
2019-03-30T09:37:45.207Z,2616.00
2019-03-30T09:38:45.164Z,2652.00
2019-03-30T09:39:45.152Z,2680.00
2019-03-30T09:40:45.172Z,2672.00
2019-03-30T09:41:45.132Z,2636.00
2019-03-30T09:42:45.120Z,2660.00
2019-03-30T09:43:45.109Z,2648.00
2019-03-30T09:44:45.108Z,2616.00
2019-03-30T09:45:45.112Z,2672.00
2019-03-30T09:46:45.078Z,2608.00
2019-03-30T09:47:45.068Z,2628.00
2019-03-30T09:48:45.055Z,2656.00
2019-03-30T09:49:45.046Z,2680.00
2019-03-30T09:50:45.061Z,2672.00
2019-03-30T09:51:45.022Z,2760.00
2019-03-30T09:52:45.015Z,2776.00
2019-03-30T09:53:45.001Z,2724.00
2019-03-30T09:54:44.991Z,2548.00
2019-03-30T09:55:45.018Z,2372.00
2019-03-30T09:56:44.970Z,2320.00
2019-03-30T09:57:44.957Z,2492.00
2019-03-30T09:58:44.948Z,2560.00
2019-03-30T09:59:44.942Z,2640.00
2019-03-30T10:00:44.963Z,2736.00
2019-03-30T10:01:44.945Z,2440.00
2019-03-30T10:02:44.906Z,2428.00
2019-03-30T10:03:44.895Z,2744.00
2019-03-30T10:04:44.887Z,2892.00
2019-03-30T10:05:44.874Z,2832.00
2019-03-30T10:06:44.891Z,2820.00
2019-03-30T10:07:44.852Z,2768.00
2019-03-30T10:08:44.843Z,2700.00
2019-03-30T10:09:47.242Z,2544.00
2019-03-30T10:10:44.822Z,2544.00
2019-03-30T10:11:44.849Z,2756.00
2019-03-30T10:12:44.800Z,2928.00
2019-03-30T10:13:44.788Z,3028.00
2019-03-30T10:14:44.776Z,2752.00
2019-03-30T10:15:44.767Z,2884.00
2019-03-30T10:16:44.759Z,3076.00
2019-03-30T10:17:44.781Z,3244.00
2019-03-30T10:18:44.755Z,3172.00
2019-03-30T10:19:48.091Z,3304.00
2019-03-30T10:20:45.715Z,3228.00
2019-03-30T10:21:44.705Z,3008.00
2019-03-30T10:22:44.690Z,3224.00
2019-03-30T10:23:44.703Z,2888.00
2019-03-30T10:24:44.668Z,2596.00
2019-03-30T10:25:44.656Z,2768.00
2019-03-30T10:26:44.646Z,2724.00
2019-03-30T10:27:44.636Z,2856.00
2019-03-30T10:28:47.045Z,2948.00
2019-03-30T10:29:44.614Z,2868.00
2019-03-30T10:30:44.604Z,2712.00
2019-03-30T10:31:44.594Z,2752.00
2019-03-30T10:32:44.583Z,2972.00
2019-03-30T10:33:44.609Z,2844.00
2019-03-30T10:34:44.561Z,2716.00
2019-03-30T10:35:44.549Z,2984.00
2019-03-30T10:36:44.542Z,3176.00
2019-03-30T10:37:44.529Z,3108.00
2019-03-30T10:38:44.517Z,2852.00
2019-03-30T10:39:44.529Z,2584.00
2019-03-30T10:40:44.494Z,2628.00
2019-03-30T10:41:44.484Z,2728.00
2019-03-30T10:42:44.474Z,2964.00
2019-03-30T10:43:44.463Z,2664.00
2019-03-30T10:44:44.491Z,3148.00
2019-03-30T10:45:44.442Z,2884.00
2019-03-30T10:46:44.430Z,3292.00
2019-03-30T10:47:44.420Z,3464.00
2019-03-30T10:48:44.410Z,3620.00
2019-03-30T10:49:44.397Z,3736.00
2019-03-30T10:50:44.416Z,3808.00
2019-03-30T10:51:44.378Z,3860.00
2019-03-30T10:52:44.365Z,3836.00
2019-03-30T10:53:44.356Z,3888.00
2019-03-30T10:54:52.447Z,3892.00
2019-03-30T10:55:45.368Z,3748.00
2019-03-30T10:56:44.323Z,3648.00
2019-03-30T10:57:44.316Z,3620.00
2019-03-30T10:58:44.301Z,3772.00
2019-03-30T10:59:44.293Z,3832.00
2019-03-30T11:00:44.283Z,3796.00
2019-03-30T11:01:44.304Z,3744.00
2019-03-30T11:02:44.258Z,3752.00
2019-03-30T11:03:44.247Z,3760.00
2019-03-30T11:04:44.236Z,3816.00
2019-03-30T11:05:44.225Z,3908.00
2019-03-30T11:06:44.216Z,3992.00
2019-03-30T11:07:44.247Z,4036.00
2019-03-30T11:08:44.199Z,4112.00
2019-03-30T11:09:44.183Z,4260.00
2019-03-30T11:10:44.173Z,4340.00
2019-03-30T11:11:44.159Z,4700.00
2019-03-30T11:12:44.152Z,5160.00
2019-03-30T11:13:44.164Z,5356.00
2019-03-30T11:14:44.132Z,5560.00
2019-03-30T11:15:44.119Z,5728.00
2019-03-30T11:16:44.108Z,5840.00
2019-03-30T11:17:44.102Z,6200.00
2019-03-30T11:18:44.111Z,6632.00
2019-03-30T11:19:44.074Z,7304.00
2019-03-30T11:20:44.065Z,7768.00
2019-03-30T11:21:44.053Z,8360.00
2019-03-30T11:22:44.044Z,8856.00
2019-03-30T11:23:44.056Z,9476.00
2019-03-30T11:24:44.022Z,9952.00
2019-03-30T11:25:44.012Z,10428.00
2019-03-30T11:26:44.001Z,10956.00
2019-03-30T11:27:43.990Z,11544.00
2019-03-30T11:28:44.017Z,11888.00
2019-03-30T11:29:43.974Z,12056.00
2019-03-30T11:30:43.958Z,12556.00
2019-03-30T11:31:43.956Z,12916.00
2019-03-30T11:32:43.935Z,12612.00
2019-03-30T11:33:43.925Z,12452.00
2019-03-30T11:34:43.941Z,12704.00
2019-03-30T11:35:43.904Z,13320.00
2019-03-30T11:36:43.895Z,11968.00
2019-03-30T11:37:43.883Z,12016.00
2019-03-30T11:38:43.873Z,13168.00
2019-03-30T11:39:44.006Z,13568.00
2019-03-30T11:40:43.851Z,14464.00
2019-03-30T11:41:43.839Z,14848.00
2019-03-30T11:42:43.827Z,15136.00
2019-03-30T11:43:43.820Z,15552.00
2019-03-30T11:44:43.809Z,15552.00
2019-03-30T11:45:43.822Z,15712.00
2019-03-30T11:46:43.803Z,16000.00
2019-03-30T11:47:43.776Z,16192.00
2019-03-30T11:48:43.766Z,16480.00
2019-03-30T11:49:43.758Z,16160.00
2019-03-30T11:50:43.770Z,15968.00
2019-03-30T11:51:43.736Z,16064.00
2019-03-30T11:52:43.723Z,16288.00
2019-03-30T11:53:43.729Z,16448.00
2019-03-30T11:54:43.702Z,16544.00
2019-03-30T11:55:43.718Z,16640.00
2019-03-30T11:56:43.680Z,16416.00
2019-03-30T11:57:43.672Z,17120.00
2019-03-30T11:58:43.664Z,17536.00
2019-03-30T11:59:43.655Z,17792.00
2019-03-30T12:00:43.671Z,18272.00
2019-03-30T12:01:43.629Z,18176.00
2019-03-30T12:02:43.619Z,18400.00
2019-03-30T12:03:43.609Z,18688.00
2019-03-30T12:04:43.603Z,18880.00
2019-03-30T12:05:43.616Z,19456.00
2019-03-30T12:06:43.578Z,19776.00
2019-03-30T12:07:43.568Z,19648.00
2019-03-30T12:08:43.558Z,19808.00
2019-03-30T12:09:43.557Z,20544.00
2019-03-30T12:10:43.565Z,21056.00
2019-03-30T12:11:43.557Z,21312.00
2019-03-30T12:12:43.515Z,21376.00
2019-03-30T12:13:43.512Z,21632.00
2019-03-30T12:14:43.500Z,21920.00
2019-03-30T12:15:43.520Z,22016.00
2019-03-30T12:16:43.473Z,22272.00
2019-03-30T12:17:43.463Z,22912.00
2019-03-30T12:18:43.453Z,23936.00
2019-03-30T12:19:43.449Z,25216.00
2019-03-30T12:20:43.433Z,25056.00
2019-03-30T12:21:43.461Z,26592.00
2019-03-30T12:22:43.416Z,28480.00
2019-03-30T12:23:43.403Z,27712.00
2019-03-30T12:24:43.401Z,27520.00
2019-03-30T12:25:43.379Z,27552.00
2019-03-30T12:26:43.376Z,27360.00
2019-03-30T12:27:43.397Z,27264.00
2019-03-30T12:28:43.350Z,27456.00
2019-03-30T12:29:44.638Z,27392.00
2019-03-30T12:30:43.333Z,27648.00
2019-03-30T12:31:43.319Z,27936.00
2019-03-30T12:32:43.316Z,27904.00